| time (UTC) | temp F | wind direction | speed knots | gust knots | rain 1hr in | rain 24hr in | rain mn in | humidity % | barometer mb |
| 20260507020016 | 62 | 0 | 3.5 | 11.3 | 0.00 | 0.07 | 0.07 | 83 | 1010.0 |
| 20260507013036 | 64 | 293 | 2.6 | 9.6 | 0.00 | 0.07 | 0.07 | 83 | 1009.4 |
| 20260507010017 | 66 | 293 | 0.9 | 3.5 | 0.00 | 0.07 | 0.07 | 82 | 1009.1 |
| 20260507003037 | 65 | 0.0 | 0.0 | 0.00 | 0.07 | 0.07 | 82 | 1008.5 | |
| 20260507000017 | 66 | 0.0 | 3.5 | 0.00 | 0.07 | 0.07 | 81 | 1008.4 | |
| 20260506233017 | 66 | 293 | 0.9 | 5.2 | 0.00 | 0.07 | 0.07 | 80 | 1008.2 |
| 20260506230017 | 67 | 293 | 1.7 | 6.1 | 0.00 | 0.07 | 0.07 | 80 | 1008.2 |
| 20260506223017 | 66 | 270 | 1.7 | 5.2 | 0.00 | 0.07 | 0.07 | 81 | 1008.0 |
| 20260506220017 | 65 | 270 | 1.7 | 7.8 | 0.00 | 0.07 | 0.07 | 82 | 1007.9 |
| 20260506213017 | 65 | 270 | 2.6 | 8.7 | 0.00 | 0.07 | 0.07 | 82 | 1007.9 |
| 20260506210017 | 65 | 270 | 2.6 | 11.3 | 0.00 | 0.07 | 0.07 | 83 | 1007.7 |
| 20260506203017 | 64 | 270 | 1.7 | 7.0 | 0.00 | 0.07 | 0.07 | 86 | 1007.4 |
| 20260506200037 | 62 | 270 | 1.7 | 7.0 | 0.00 | 0.07 | 0.07 | 88 | 1007.9 |
| 20260506193017 | 62 | 248 | 1.7 | 7.0 | 0.00 | 0.07 | 0.07 | 88 | 1008.2 |
| 20260506190018 | 63 | 248 | 1.7 | 7.8 | 0.00 | 0.07 | 0.07 | 86 | 1008.5 |
| 20260506183017 | 63 | 270 | 1.7 | 7.8 | 0.00 | 0.07 | 0.07 | 86 | 1008.4 |
| 20260506180016 | 63 | 293 | 0.9 | 8.7 | 0.01 | 0.07 | 0.07 | 87 | 1008.5 |
| 20260506173017 | 63 | 270 | 1.7 | 7.8 | 0.02 | 0.07 | 0.07 | 87 | 1008.8 |
| 20260506170017 | 63 | 225 | 1.7 | 3.5 | 0.04 | 0.06 | 0.06 | 86 | 1008.7 |
| 20260506163016 | 63 | 203 | 0.9 | 2.6 | 0.05 | 0.05 | 0.05 | 86 | 1009.5 |
| 20260506160016 | 64 | 225 | 0.9 | 3.5 | 0.02 | 0.02 | 0.02 | 81 | 1010.1 |
| 20260506153016 | 66 | 270 | 1.7 | 5.2 | 0.00 | 0.00 | 0.00 | 76 | 1009.9 |
| 20260506150016 | 67 | 248 | 2.6 | 11.3 | 0.00 | 0.00 | 0.00 | 71 | 1009.9 |
| 20260506143016 | 68 | 248 | 3.5 | 10.4 | 0.00 | 0.00 | 0.00 | 68 | 1010.1 |
| 20260506140016 | 68 | 225 | 2.6 | 7.0 | 0.00 | 0.00 | 0.00 | 69 | 1010.0 |
| 20260506133016 | 68 | 248 | 2.6 | 11.3 | 0.00 | 0.00 | 0.00 | 69 | 1010.2 |
| 20260506130016 | 67 | 248 | 2.6 | 7.8 | 0.00 | 0.00 | 0.00 | 70 | 1010.2 |
| 20260506123016 | 66 | 203 | 1.7 | 7.8 | 0.00 | 0.00 | 0.00 | 72 | 1009.9 |
| 20260506120016 | 65 | 225 | 1.7 | 7.8 | 0.00 | 0.00 | 0.00 | 73 | 1010.2 |
| 20260506113016 | 66 | 203 | 2.6 | 7.0 | 0.00 | 0.00 | 0.00 | 73 | 1010.4 |
| 20260506110016 | 65 | 225 | 2.6 | 7.8 | 0.00 | 0.00 | 0.00 | 74 | 1010.1 |
| 20260506103015 | 64 | 203 | 2.6 | 5.2 | 0.00 | 0.00 | 0.00 | 75 | 1010.1 |
| 20260506100016 | 65 | 203 | 2.6 | 7.8 | 0.00 | 0.00 | 0.00 | 74 | 1009.9 |
| 20260506093015 | 65 | 203 | 2.6 | 8.7 | 0.00 | 0.00 | 0.00 | 74 | 1009.8 |
| 20260506090036 | 65 | 203 | 1.7 | 6.1 | 0.00 | 0.00 | 0.00 | 74 | 1010.1 |
| 20260506083015 | 65 | 225 | 1.7 | 6.1 | 0.00 | 0.00 | 0.00 | 74 | 1010.1 |
| 20260506073017 | 66 | 225 | 1.7 | 6.1 | 0.00 | 0.00 | 0.00 | 72 | 1010.2 |
| 20260506043017 | 68 | 225 | 1.7 | 4.3 | 0.00 | 0.00 | 0.00 | 63 | 1011.0 |
| 20260506040017 | 69 | 225 | 1.7 | 4.3 | 0.00 | 0.00 | 0.00 | 62 | 1011.1 |
| 20260506033015 | 69 | 203 | 1.7 | 4.3 | 0.00 | 0.00 | 0.00 | 61 | 1011.0 |
| 20260506030017 | 70 | 225 | 1.7 | 5.2 | 0.00 | 0.00 | 0.00 | 59 | 1011.0 |
| 20260506023015 | 71 | 203 | 2.6 | 7.8 | 0.00 | 0.00 | 0.00 | 58 | 1010.9 |